Time;durP1;ratioP1;P1;durP2;ratioP2;P2;SDS_P1;SDS_P2;PMS_P1;PMS_P2;Temp;Humidity;BMP_temperature;BMP_pressure;BME280_temperature;BME280_humidity;BME280_pressure;Samples;Min_cycle;Max_cycle;Signal;HPM_P1;HPM_P2
2022/10/16 00:00:31;;;;;;;8.30;7.80;;;17.70;50.20;;;;;;5032256;28;20481;-58
2022/10/16 00:02:56;;;;;;;8.27;7.77;;;17.70;50.50;;;;;;5035384;28;20538;-58
2022/10/16 00:05:22;;;;;;;7.93;7.63;;;17.60;49.70;;;;;;5032797;28;20730;-58
2022/10/16 00:07:47;;;;;;;7.93;7.30;;;17.60;50.20;;;;;;5034481;28;20226;-58
2022/10/16 00:10:13;;;;;;;7.70;7.40;;;17.60;50.60;;;;;;5033515;28;20692;-58
2022/10/16 00:12:39;;;;;;;7.30;7.00;;;17.70;50.50;;;;;;5036033;28;20235;-58
2022/10/16 00:15:05;;;;;;;7.70;7.40;;;17.70;50.40;;;;;;5029959;28;20285;-58
2022/10/16 00:17:31;;;;;;;7.93;7.63;;;17.60;49.50;;;;;;5052772;28;20235;-59
2022/10/16 00:19:57;;;;;;;7.67;7.33;;;17.60;50.00;;;;;;5032945;28;20448;-58
2022/10/16 00:22:23;;;;;;;8.10;7.77;;;17.50;50.50;;;;;;5032621;28;20453;-58
2022/10/16 00:24:49;;;;;;;7.60;7.30;;;17.60;50.50;;;;;;5033056;28;20465;-58
2022/10/16 00:27:15;;;;;;;8.57;7.90;;;17.60;50.70;;;;;;5031937;28;20826;-59
2022/10/16 00:29:40;;;;;;;7.87;7.47;;;17.60;50.70;;;;;;5033862;28;20496;-59
2022/10/16 00:32:06;;;;;;;8.23;7.70;;;17.60;50.70;;;;;;5033526;28;20230;-59
2022/10/16 00:34:32;;;;;;;7.93;7.63;;;17.60;50.40;;;;;;5035482;28;20227;-58
2022/10/16 00:36:57;;;;;;;8.30;7.90;;;17.70;50.20;;;;;;5031745;28;20222;-58
2022/10/16 00:39:23;;;;;;;7.80;7.50;;;17.60;50.00;;;;;;5033914;28;20591;-59
2022/10/16 00:41:49;;;;;;;8.60;8.20;;;17.60;50.10;;;;;;5032332;28;20254;-58
2022/10/16 00:44:59;;;;;;;8.37;7.97;;;17.60;50.10;;;;;;5034205;28;20318;-59
2022/10/16 00:47:38;;;;;;;8.60;8.20;;;17.60;50.20;;;;;;5028867;28;20226;-59
2022/10/16 00:50:37;;;;;;;8.13;7.40;;;17.70;50.40;;;;;;5033131;28;20445;-58
2022/10/16 00:53:03;;;;;;;7.83;7.33;;;17.70;50.40;;;;;;4978271;28;20477;-59
2022/10/16 00:55:30;;;;;;;7.40;7.20;;;17.60;50.20;;;;;;5032875;28;20449;-58
2022/10/16 00:57:57;;;;;;;7.97;7.67;;;17.60;50.50;;;;;;5032366;28;20556;-58
2022/10/16 01:00:25;;;;;;;7.90;7.50;;;17.60;50.20;;;;;;5033569;28;20441;-59
2022/10/16 01:02:59;;;;;;;8.00;7.70;;;17.60;50.40;;;;;;5033480;28;20456;-59
2022/10/16 01:05:59;;;;;;;7.83;7.53;;;17.60;50.50;;;;;;5034308;28;20472;-57
2022/10/16 01:08:37;;;;;;;8.00;7.50;;;17.60;50.70;;;;;;5016153;28;20442;-53
2022/10/16 01:11:26;;;;;;;8.17;7.77;;;17.60;50.60;;;;;;5030338;28;20452;-54
2022/10/16 01:14:00;;;;;;;8.20;7.80;;;17.60;50.70;;;;;;5029623;28;21021;-55
2022/10/16 01:16:38;;;;;;;7.90;7.50;;;17.60;50.60;;;;;;5031724;28;20507;-54
2022/10/16 01:19:55;;;;;;;8.03;7.47;;;17.50;50.60;;;;;;5032043;28;20453;-54
2022/10/16 01:22:25;;;;;;;8.50;8.10;;;17.60;50.80;;;;;;4989851;28;20449;-55
2022/10/16 01:24:55;;;;;;;8.23;7.80;;;17.60;50.70;;;;;;5031141;28;20877;-56
2022/10/16 01:27:23;;;;;;;8.10;7.80;;;17.60;51.00;;;;;;5030605;28;20446;-56
2022/10/16 01:30:07;;;;;;;7.87;7.47;;;17.60;51.00;;;;;;5050124;28;20448;-56
2022/10/16 01:32:38;;;;;;;8.20;7.90;;;17.60;50.80;;;;;;5030842;28;20813;-56
2022/10/16 01:35:36;;;;;;;8.27;7.97;;;17.60;50.30;;;;;;5031188;28;20544;-53
2022/10/16 01:38:09;;;;;;;8.33;8.03;;;17.60;50.30;;;;;;5029229;28;20449;-55
2022/10/16 01:40:36;;;;;;;7.77;7.33;;;17.60;50.50;;;;;;5027130;28;21076;-55
2022/10/16 01:43:10;;;;;;;8.60;8.20;;;17.60;50.40;;;;;;5031744;28;20455;-55
2022/10/16 01:45:37;;;;;;;8.40;8.10;;;17.60;50.20;;;;;;5029589;28;20457;-55
2022/10/16 01:48:07;;;;;;;7.60;7.40;;;17.60;50.40;;;;;;5031108;28;20444;-58
2022/10/16 01:50:37;;;;;;;8.00;7.80;;;17.60;50.50;;;;;;5027854;28;20473;-58
2022/10/16 01:53:05;;;;;;;7.83;7.53;;;17.60;50.30;;;;;;5048894;28;20453;-58
2022/10/16 01:55:38;;;;;;;8.27;7.97;;;17.60;50.40;;;;;;5029316;28;20957;-59
2022/10/16 01:58:06;;;;;;;8.90;8.50;;;17.60;50.20;;;;;;5030597;28;20954;-57
2022/10/16 02:00:32;;;;;;;9.00;8.60;;;17.60;50.10;;;;;;5029264;28;20476;-59
2022/10/16 02:03:01;;;;;;;9.33;8.90;;;17.60;50.20;;;;;;5030246;28;20451;-56
2022/10/16 02:05:33;;;;;;;8.70;8.30;;;17.60;49.90;;;;;;5028552;28;20230;-59
2022/10/16 02:07:59;;;;;;;8.73;8.43;;;17.60;49.70;;;;;;5030862;28;20544;-57
2022/10/16 02:10:25;;;;;;;8.50;8.10;;;17.60;49.50;;;;;;5029442;28;20937;-59
2022/10/16 02:12:59;;;;;;;9.10;8.50;;;17.70;49.50;;;;;;5029048;28;20238;-57
2022/10/16 02:15:25;;;;;;;8.43;8.13;;;17.60;49.20;;;;;;5030161;28;20480;-59
2022/10/16 02:17:50;;;;;;;7.87;7.57;;;17.60;49.80;;;;;;5029961;28;20453;-58
2022/10/16 02:20:16;;;;;;;8.10;7.80;;;17.60;50.10;;;;;;5027794;28;20303;-58
2022/10/16 02:22:49;;;;;;;8.17;7.80;;;17.70;49.50;;;;;;5030877;28;20231;-59
2022/10/16 02:25:22;;;;;;;8.47;7.97;;;17.60;49.10;;;;;;5029288;28;20507;-59
2022/10/16 02:27:57;;;;;;;8.90;8.60;;;17.70;49.10;;;;;;5029578;28;20844;-60
2022/10/16 02:30:26;;;;;;;8.23;7.97;;;17.70;49.40;;;;;;5028914;28;20952;-55
2022/10/16 02:32:53;;;;;;;8.43;8.13;;;17.60;49.70;;;;;;5028395;28;20572;-55
2022/10/16 02:35:21;;;;;;;8.20;7.90;;;17.60;49.80;;;;;;5032180;28;20515;-58
2022/10/16 02:37:50;;;;;;;8.57;8.27;;;17.60;49.00;;;;;;5029322;28;20968;-57
2022/10/16 02:40:17;;;;;;;8.07;7.57;;;17.50;48.80;;;;;;5029682;28;20506;-57
2022/10/16 02:42:43;;;;;;;7.37;7.07;;;17.50;49.70;;;;;;5027320;28;20844;-58
2022/10/16 02:45:10;;;;;;;8.00;7.80;;;17.50;50.00;;;;;;5028972;28;20457;-58
2022/10/16 02:47:36;;;;;;;7.43;7.13;;;17.60;49.80;;;;;;5029454;28;20260;-58
2022/10/16 02:50:03;;;;;;;8.30;8.00;;;17.60;50.00;;;;;;5028495;28;23130;-58
2022/10/16 02:52:28;;;;;;;8.00;7.70;;;17.60;50.00;;;;;;5031594;28;20592;-54
2022/10/16 02:54:54;;;;;;;7.67;7.47;;;17.60;49.80;;;;;;5027761;28;20977;-54
2022/10/16 02:57:19;;;;;;;8.10;7.80;;;17.60;49.70;;;;;;5027741;28;20235;-59
2022/10/16 02:59:45;;;;;;;7.43;7.23;;;17.50;49.20;;;;;;5027155;28;20683;-58
2022/10/16 03:02:11;;;;;;;7.83;7.60;;;17.60;49.70;;;;;;5030408;28;20235;-58
2022/10/16 03:04:37;;;;;;;8.60;8.30;;;17.40;48.60;;;;;;5027875;28;20707;-57
2022/10/16 03:07:03;;;;;;;7.90;7.50;;;17.40;49.00;;;;;;5032182;28;20485;-53
2022/10/16 03:09:29;;;;;;;7.93;7.63;;;17.40;48.80;;;;;;5031014;28;20736;-57
2022/10/16 03:11:54;;;;;;;7.83;7.43;;;17.40;48.80;;;;;;5028679;28;20481;-58
2022/10/16 03:14:20;;;;;;;8.20;7.90;;;17.30;49.10;;;;;;5028406;28;20567;-56
2022/10/16 03:16:45;;;;;;;8.40;8.10;;;17.30;49.00;;;;;;5030363;28;20364;-58
2022/10/16 03:19:11;;;;;;;8.30;7.90;;;17.20;49.20;;;;;;5031858;28;20310;-58
2022/10/16 03:21:37;;;;;;;7.23;7.03;;;17.30;49.60;;;;;;5046999;28;20226;-58
2022/10/16 03:24:03;;;;;;;7.57;7.27;;;17.30;49.70;;;;;;5033766;28;20262;-58
2022/10/16 03:26:28;;;;;;;7.87;7.57;;;17.40;49.90;;;;;;5028364;28;20226;-58
2022/10/16 03:28:54;;;;;;;7.23;7.00;;;17.40;49.70;;;;;;5033136;28;20234;-54
2022/10/16 03:31:19;;;;;;;7.80;7.50;;;17.50;49.80;;;;;;5031613;28;20237;-53
2022/10/16 03:33:45;;;;;;;7.47;7.27;;;17.60;49.40;;;;;;5030869;28;20223;-51
2022/10/16 03:36:10;;;;;;;7.47;7.17;;;17.60;49.20;;;;;;5033779;28;20234;-53
2022/10/16 03:38:36;;;;;;;8.87;8.03;;;17.60;49.20;;;;;;5033054;28;20288;-53
2022/10/16 03:41:03;;;;;;;7.50;7.30;;;17.60;48.70;;;;;;5033492;28;20669;-52
2022/10/16 03:43:28;;;;;;;8.40;7.80;;;17.60;48.30;;;;;;5034741;28;20223;-55
2022/10/16 03:45:54;;;;;;;8.10;7.40;;;17.60;48.80;;;;;;5035197;28;20507;-54
2022/10/16 03:48:19;;;;;;;7.57;7.07;;;17.60;48.30;;;;;;5017253;28;20258;-54
2022/10/16 03:50:47;;;;;;;7.70;7.43;;;17.60;48.30;;;;;;5034764;28;20227;-54
2022/10/16 03:53:14;;;;;;;8.73;8.23;;;17.60;48.30;;;;;;5034000;28;20259;-54
2022/10/16 03:55:41;;;;;;;8.20;7.83;;;17.70;48.40;;;;;;5036679;28;20441;-55
2022/10/16 03:58:07;;;;;;;8.13;7.83;;;17.60;48.30;;;;;;5035545;28;20446;-53
2022/10/16 04:00:34;;;;;;;8.30;8.00;;;17.60;48.90;;;;;;5035435;28;20448;-54
2022/10/16 04:03:00;;;;;;;7.87;7.60;;;17.60;48.70;;;;;;5035024;28;20313;-54
2022/10/16 04:05:25;;;;;;;8.17;7.87;;;17.50;49.20;;;;;;5038942;28;20499;-53
2022/10/16 04:07:51;;;;;;;8.30;8.00;;;17.60;48.70;;;;;;5040010;28;20663;-53
2022/10/16 04:10:17;;;;;;;8.63;8.30;;;17.60;48.80;;;;;;5037991;28;20222;-54
2022/10/16 04:12:42;;;;;;;8.00;7.70;;;17.60;48.50;;;;;;5040747;28;20744;-53
2022/10/16 04:15:08;;;;;;;8.20;7.90;;;17.50;49.40;;;;;;5039038;28;21026;-54
2022/10/16 04:17:34;;;;;;;7.97;7.50;;;17.50;48.90;;;;;;5058344;28;20326;-56
2022/10/16 04:19:59;;;;;;;8.53;8.03;;;17.60;49.70;;;;;;5037873;28;20445;-55
2022/10/16 04:22:25;;;;;;;9.07;8.43;;;17.60;49.60;;;;;;5041488;28;20225;-55
2022/10/16 04:24:51;;;;;;;9.20;8.70;;;17.60;49.70;;;;;;5040394;28;20234;-54
2022/10/16 04:27:16;;;;;;;8.60;8.30;;;17.50;49.80;;;;;;5037071;28;20223;-53
2022/10/16 04:29:42;;;;;;;8.30;8.00;;;17.60;49.90;;;;;;5041072;28;20227;-54
2022/10/16 04:32:09;;;;;;;8.47;8.17;;;17.60;50.00;;;;;;5037737;28;20241;-58
2022/10/16 04:34:34;;;;;;;8.57;8.03;;;17.60;50.20;;;;;;5039182;28;20234;-58
2022/10/16 04:37:00;;;;;;;8.80;8.50;;;17.60;50.20;;;;;;5037828;28;20451;-58
2022/10/16 04:39:26;;;;;;;12.60;11.80;;;17.60;49.90;;;;;;5040104;28;20222;-58
2022/10/16 04:41:51;;;;;;;8.47;8.17;;;17.60;49.90;;;;;;5035905;28;20330;-58
2022/10/16 04:44:17;;;;;;;8.10;7.80;;;17.50;50.00;;;;;;5057171;28;20225;-58
2022/10/16 04:46:44;;;;;;;8.80;8.37;;;17.50;50.20;;;;;;5039040;28;20219;-57
2022/10/16 04:49:09;;;;;;;8.50;7.90;;;17.50;50.10;;;;;;5037568;28;21234;-58
2022/10/16 04:51:35;;;;;;;8.70;8.40;;;17.50;50.20;;;;;;5038889;28;20461;-57
2022/10/16 04:54:01;;;;;;;9.00;8.70;;;17.50;49.80;;;;;;5039062;28;20237;-58
2022/10/16 04:56:27;;;;;;;8.97;8.47;;;17.50;50.00;;;;;;5038233;28;20478;-59
2022/10/16 04:58:52;;;;;;;9.27;8.77;;;17.60;49.90;;;;;;5037453;28;20764;-57
2022/10/16 05:01:18;;;;;;;9.10;8.70;;;17.60;50.00;;;;;;5038584;28;20319;-57
2022/10/16 05:03:44;;;;;;;8.10;7.80;;;17.60;49.90;;;;;;5037206;28;20230;-54
2022/10/16 05:06:09;;;;;;;8.03;7.63;;;17.60;49.70;;;;;;5038347;28;20262;-54
2022/10/16 05:08:35;;;;;;;8.90;8.50;;;17.50;49.70;;;;;;5037497;28;20586;-55
2022/10/16 05:11:01;;;;;;;10.10;9.27;;;17.50;49.60;;;;;;5036518;28;20268;-54
2022/10/16 05:13:26;;;;;;;8.27;7.90;;;17.50;49.60;;;;;;5037898;28;20225;-54
2022/10/16 05:15:52;;;;;;;8.60;8.30;;;17.50;50.00;;;;;;5035560;28;20445;-56
2022/10/16 05:18:18;;;;;;;9.17;8.80;;;17.50;50.00;;;;;;5037284;28;20245;-57
2022/10/16 05:20:43;;;;;;;9.00;8.60;;;17.50;50.20;;;;;;5039833;28;20684;-57
2022/10/16 05:23:12;;;;;;;9.10;8.57;;;17.50;50.10;;;;;;5036403;28;20222;-57
2022/10/16 05:25:38;;;;;;;8.63;8.33;;;17.50;50.20;;;;;;5038321;28;20682;-55
2022/10/16 05:28:04;;;;;;;8.70;8.40;;;17.50;50.60;;;;;;5037328;28;20530;-54
2022/10/16 05:30:29;;;;;;;8.70;8.20;;;17.50;50.80;;;;;;5036528;28;20262;-55
2022/10/16 05:32:55;;;;;;;8.80;8.50;;;17.50;50.80;;;;;;5034227;28;20634;-54
2022/10/16 05:35:21;;;;;;;8.60;8.30;;;17.50;50.70;;;;;;5037166;28;20231;-55
2022/10/16 05:37:47;;;;;;;8.47;8.10;;;17.50;50.80;;;;;;5035331;28;20682;-57
2022/10/16 05:40:13;;;;;;;8.90;8.60;;;17.50;50.60;;;;;;5038491;28;21659;-58
2022/10/16 05:42:40;;;;;;;8.20;7.90;;;17.40;50.50;;;;;;5034522;28;20481;-57
2022/10/16 05:45:09;;;;;;;8.80;8.50;;;17.40;50.50;;;;;;5037667;28;20907;-55
2022/10/16 05:47:34;;;;;;;8.97;8.57;;;17.40;50.50;;;;;;5039781;28;20457;-56
2022/10/16 05:50:00;;;;;;;8.47;8.07;;;17.30;50.60;;;;;;5041064;28;20460;-56
2022/10/16 05:52:27;;;;;;;9.30;8.70;;;17.30;50.50;;;;;;5040281;28;20227;-55
2022/10/16 05:54:52;;;;;;;8.30;7.90;;;17.30;50.50;;;;;;5039778;28;20321;-54
2022/10/16 05:57:18;;;;;;;8.97;8.47;;;17.30;51.10;;;;;;5040095;28;21303;-55
2022/10/16 05:59:43;;;;;;;8.87;8.57;;;17.20;50.90;;;;;;5037937;28;20234;-58
2022/10/16 06:02:16;;;;;;;8.90;8.60;;;17.30;51.20;;;;;;5055069;28;20226;-58
2022/10/16 06:04:41;;;;;;;9.03;8.43;;;17.30;51.00;;;;;;5038275;28;20276;-58
2022/10/16 06:07:07;;;;;;;8.80;8.50;;;17.30;51.00;;;;;;5037815;28;21004;-58
2022/10/16 06:09:33;;;;;;;9.00;8.50;;;17.30;50.50;;;;;;5036567;28;20365;-58
2022/10/16 06:11:58;;;;;;;9.00;8.60;;;17.30;50.90;;;;;;5038714;28;20230;-58
2022/10/16 06:14:25;;;;;;;8.43;8.13;;;17.30;50.80;;;;;;5039193;28;20230;-58
2022/10/16 06:16:50;;;;;;;8.43;8.13;;;17.30;50.70;;;;;;5037369;28;20300;-58
2022/10/16 06:19:17;;;;;;;9.27;8.00;;;17.40;50.80;;;;;;5055654;28;20445;-57
2022/10/16 06:21:43;;;;;;;8.07;7.47;;;17.30;50.60;;;;;;5038916;28;20312;-57
2022/10/16 06:24:09;;;;;;;8.83;8.33;;;17.40;51.00;;;;;;5035140;28;21031;-57
2022/10/16 06:26:34;;;;;;;8.80;8.40;;;17.40;51.10;;;;;;5036636;28;20384;-58
2022/10/16 06:29:00;;;;;;;8.57;8.17;;;17.40;51.10;;;;;;5039014;28;20486;-54
2022/10/16 06:31:30;;;;;;;8.37;8.07;;;17.50;51.10;;;;;;5039001;28;20224;-54
2022/10/16 06:33:56;;;;;;;7.70;7.40;;;17.50;50.70;;;;;;5038010;28;20967;-55
2022/10/16 06:36:24;;;;;;;7.57;7.23;;;17.50;50.60;;;;;;5036860;28;20460;-55
2022/10/16 06:38:50;;;;;;;7.93;7.63;;;17.50;50.70;;;;;;5033877;28;20460;-54
2022/10/16 06:41:18;;;;;;;8.70;8.30;;;17.50;50.70;;;;;;5052768;28;20528;-55
2022/10/16 06:43:45;;;;;;;8.03;7.63;;;17.50;50.70;;;;;;5037577;28;20718;-54
2022/10/16 06:46:12;;;;;;;7.77;7.43;;;17.50;50.60;;;;;;5038777;28;20438;-55
2022/10/16 06:48:38;;;;;;;7.73;7.33;;;17.50;50.60;;;;;;5036819;28;20440;-55
2022/10/16 06:51:05;;;;;;;7.83;7.53;;;17.60;50.80;;;;;;5039424;28;20445;-54
2022/10/16 06:53:33;;;;;;;8.30;7.90;;;17.60;50.90;;;;;;5036224;28;20441;-52
2022/10/16 06:56:10;;;;;;;7.40;7.00;;;17.60;50.80;;;;;;5037322;28;20797;-57
2022/10/16 06:58:36;;;;;;;8.03;7.63;;;17.60;50.90;;;;;;5039273;28;20544;-58
2022/10/16 07:01:03;;;;;;;8.40;7.90;;;17.60;50.80;;;;;;5054764;28;20870;-57
2022/10/16 07:03:29;;;;;;;7.80;7.43;;;17.60;50.80;;;;;;5039020;28;20533;-58
2022/10/16 07:05:54;;;;;;;7.70;7.30;;;17.60;50.60;;;;;;5037087;28;20524;-58
2022/10/16 07:08:20;;;;;;;7.80;7.50;;;17.60;50.70;;;;;;5039126;28;20207;-59
2022/10/16 07:10:45;;;;;;;8.23;7.40;;;17.60;50.90;;;;;;5038437;28;20219;-59
2022/10/16 07:13:14;;;;;;;8.60;8.10;;;17.60;50.40;;;;;;5038791;28;20227;-61
2022/10/16 07:15:40;;;;;;;8.70;8.20;;;17.70;50.70;;;;;;5037649;28;20223;-57
2022/10/16 07:18:06;;;;;;;8.40;8.10;;;17.70;50.40;;;;;;5039533;28;20471;-59
2022/10/16 07:20:32;;;;;;;8.17;7.80;;;17.70;50.00;;;;;;5039453;28;20811;-59
2022/10/16 07:22:58;;;;;;;9.27;8.40;;;17.80;50.00;;;;;;5038033;28;20446;-58
2022/10/16 07:25:24;;;;;;;8.77;8.20;;;17.80;50.50;;;;;;5040486;28;20549;-60
2022/10/16 07:27:50;;;;;;;8.77;8.27;;;17.80;50.00;;;;;;5039319;28;20770;-58
2022/10/16 07:30:15;;;;;;;9.60;8.73;;;17.80;49.70;;;;;;5037979;28;20334;-58
2022/10/16 07:32:41;;;;;;;8.77;8.37;;;17.80;49.70;;;;;;5055117;28;20316;-58
2022/10/16 07:35:07;;;;;;;8.30;7.90;;;17.80;49.70;;;;;;5036342;28;20237;-57
2022/10/16 07:37:33;;;;;;;8.03;7.67;;;17.90;49.90;;;;;;5044645;28;20234;-57
2022/10/16 07:39:58;;;;;;;8.77;8.10;;;17.90;50.30;;;;;;5031931;28;20453;-58
2022/10/16 07:42:24;;;;;;;8.80;8.37;;;17.80;50.80;;;;;;5040478;28;20724;-57
2022/10/16 07:44:49;;;;;;;8.47;8.07;;;17.90;50.70;;;;;;5026877;28;20607;-58
2022/10/16 07:47:15;;;;;;;8.67;8.10;;;17.90;50.50;;;;;;5024871;28;20269;-53
2022/10/16 07:49:41;;;;;;;8.30;7.97;;;17.90;50.70;;;;;;5024036;28;20683;-51
2022/10/16 07:52:07;;;;;;;9.07;8.47;;;17.90;51.00;;;;;;5020060;28;20231;-54
2022/10/16 07:54:32;;;;;;;8.87;8.47;;;17.90;50.80;;;;;;5022585;28;20774;-54
2022/10/16 07:56:58;;;;;;;7.70;7.40;;;17.90;50.50;;;;;;5041223;28;20234;-51
2022/10/16 07:59:24;;;;;;;8.20;7.83;;;17.90;50.50;;;;;;5061364;28;20223;-54
2022/10/16 08:01:50;;;;;;;8.00;7.70;;;17.90;49.80;;;;;;5043465;28;20280;-52
2022/10/16 08:04:15;;;;;;;8.00;7.70;;;17.90;50.10;;;;;;5037823;28;20258;-52
2022/10/16 08:06:41;;;;;;;8.50;8.00;;;17.90;50.30;;;;;;5044738;28;20442;-54
2022/10/16 08:09:08;;;;;;;8.00;7.70;;;18.00;50.60;;;;;;5028025;28;20547;-54
2022/10/16 08:11:34;;;;;;;7.77;7.47;;;18.00;50.20;;;;;;5058963;28;20227;-53
2022/10/16 08:14:00;;;;;;;7.90;7.50;;;18.00;50.00;;;;;;5060130;28;20989;-54
2022/10/16 08:16:25;;;;;;;8.30;7.90;;;18.00;50.50;;;;;;5039806;28;20323;-54
2022/10/16 08:18:51;;;;;;;7.70;7.40;;;18.00;49.50;;;;;;5041706;28;20453;-55
2022/10/16 08:21:19;;;;;;;7.47;7.07;;;18.10;50.50;;;;;;5042991;28;20222;-55
2022/10/16 08:23:45;;;;;;;7.50;7.10;;;18.10;49.40;;;;;;5041570;28;20272;-54
2022/10/16 08:26:11;;;;;;;7.60;7.30;;;18.10;49.50;;;;;;5031921;28;20433;-55
2022/10/16 08:28:37;;;;;;;7.90;7.60;;;18.10;49.00;;;;;;5040235;28;20532;-52
2022/10/16 08:31:15;;;;;;;7.20;6.90;;;18.10;46.00;;;;;;5050025;28;20485;-55
2022/10/16 08:33:44;;;;;;;9.50;6.83;;;18.10;46.20;;;;;;5029891;28;20433;-55
2022/10/16 08:36:10;;;;;;;7.00;6.80;;;18.10;46.20;;;;;;5028746;28;20941;-54
2022/10/16 08:38:36;;;;;;;7.50;7.20;;;18.10;45.90;;;;;;5030315;28;20822;-54
2022/10/16 08:41:14;;;;;;;7.37;6.97;;;18.10;45.90;;;;;;5033170;28;20877;-53
2022/10/16 08:44:13;;;;;;;6.43;6.20;;;18.10;45.80;;;;;;5047832;28;20507;-53
2022/10/16 08:46:41;;;;;;;6.87;6.47;;;18.10;45.70;;;;;;4990673;28;20448;-55
2022/10/16 08:49:13;;;;;;;6.73;6.47;;;18.20;45.70;;;;;;5078023;28;20814;-55
2022/10/16 08:51:39;;;;;;;7.00;6.70;;;18.20;45.70;;;;;;5047782;28;20567;-53
2022/10/16 08:54:18;;;;;;;7.60;7.00;;;18.20;45.90;;;;;;5042325;28;20453;-55
2022/10/16 08:56:44;;;;;;;7.10;6.70;;;18.20;46.00;;;;;;5041631;28;20444;-53
2022/10/16 08:59:20;;;;;;;6.60;6.20;;;18.20;46.10;;;;;;5052078;28;20449;-53
2022/10/16 09:01:49;;;;;;;7.30;6.90;;;18.20;46.40;;;;;;5058687;28;20250;-53
2022/10/16 09:04:36;;;;;;;6.20;6.00;;;18.20;46.30;;;;;;5058869;28;20469;-55
2022/10/16 09:07:09;;;;;;;7.03;6.83;;;18.20;46.40;;;;;;5046813;28;20460;-54
2022/10/16 09:10:00;;;;;;;6.67;6.37;;;18.20;46.20;;;;;;5041370;28;20543;-55
2022/10/16 09:12:37;;;;;;;6.80;6.50;;;18.30;46.30;;;;;;5041842;28;20503;-54
2022/10/16 09:15:32;;;;;;;6.57;6.33;;;18.30;46.10;;;;;;5038644;28;20551;-56
2022/10/16 09:18:17;;;;;;;7.00;6.50;;;18.40;46.00;;;;;;5040204;28;20461;-54
2022/10/16 09:21:15;;;;;;;7.80;7.30;;;18.40;45.40;;;;;;5055862;28;20458;-54
2022/10/16 09:23:40;;;;;;;6.60;6.20;;;18.40;45.70;;;;;;5041295;28;20446;-58
2022/10/16 09:26:11;;;;;;;7.87;7.27;;;18.50;46.70;;;;;;5058494;28;20514;-58
2022/10/16 09:28:37;;;;;;;6.20;6.00;;;18.60;43.50;;;;;;5040834;28;20223;-57
2022/10/16 09:31:03;;;;;;;6.13;5.93;;;18.60;43.10;;;;;;5040965;28;20467;-58
2022/10/16 09:33:40;;;;;;;6.73;6.53;;;18.70;42.90;;;;;;5041090;28;20246;-58
2022/10/16 09:36:06;;;;;;;7.33;7.03;;;18.70;42.50;;;;;;5038795;28;20226;-55
2022/10/16 09:38:35;;;;;;;7.20;6.90;;;18.80;42.00;;;;;;5040324;28;20449;-59
2022/10/16 09:41:14;;;;;;;6.50;6.30;;;18.80;41.40;;;;;;5039209;28;20453;-59
2022/10/16 09:43:46;;;;;;;6.53;6.23;;;18.80;41.60;;;;;;5041165;28;20529;-55
2022/10/16 09:46:31;;;;;;;6.23;6.00;;;18.90;41.90;;;;;;5041298;28;20442;-56
2022/10/16 09:49:05;;;;;;;6.53;6.23;;;18.90;41.90;;;;;;5058852;28;20464;-57
2022/10/16 09:51:34;;;;;;;6.43;6.13;;;19.00;41.90;;;;;;5041050;28;20992;-57
2022/10/16 09:54:12;;;;;;;6.40;6.13;;;19.00;41.80;;;;;;5039566;28;20530;-56
2022/10/16 09:56:39;;;;;;;6.97;6.43;;;19.10;41.80;;;;;;5039165;28;20457;-56
2022/10/16 09:59:16;;;;;;;6.80;6.40;;;19.10;41.60;;;;;;5043446;28;20440;-57
2022/10/16 10:01:50;;;;;;;5.80;5.60;;;19.20;41.30;;;;;;5034322;28;20580;-57
2022/10/16 10:04:20;;;;;;;6.60;6.20;;;19.30;39.80;;;;;;5022945;28;20457;-57
2022/10/16 10:06:54;;;;;;;5.73;5.53;;;19.40;39.80;;;;;;5023014;28;20454;-56
2022/10/16 10:09:28;;;;;;;6.40;6.20;;;19.40;39.80;;;;;;5040506;28;20463;-57
2022/10/16 10:11:55;;;;;;;6.63;6.33;;;19.50;40.50;;;;;;5037566;28;20446;-56
2022/10/16 10:14:39;;;;;;;6.77;6.47;;;19.50;40.60;;;;;;5026367;28;20454;-56
2022/10/16 10:17:05;;;;;;;7.37;6.80;;;19.60;38.50;;;;;;5028561;28;20525;-57
2022/10/16 10:19:40;;;;;;;7.40;6.93;;;19.70;37.50;;;;;;5032955;28;20532;-57
2022/10/16 10:22:32;;;;;;;6.40;6.20;;;19.80;36.80;;;;;;5026682;28;20627;-57
2022/10/16 10:25:23;;;;;;;6.77;6.47;;;19.90;36.60;;;;;;5027756;28;20470;-57
2022/10/16 10:28:06;;;;;;;6.37;6.03;;;20.00;37.30;;;;;;5039301;28;20520;-57
2022/10/16 10:30:41;;;;;;;6.50;6.30;;;20.10;34.90;;;;;;5038181;28;21012;-57
2022/10/16 10:33:06;;;;;;;6.40;6.20;;;20.10;34.20;;;;;;5041509;28;20471;-57
2022/10/16 10:35:51;;;;;;;7.30;7.00;;;20.20;34.80;;;;;;5043257;28;20441;-57
2022/10/16 10:38:28;;;;;;;6.27;5.97;;;20.30;34.60;;;;;;5039270;28;20230;-57
2022/10/16 10:41:18;;;;;;;6.70;6.40;;;20.40;33.20;;;;;;5040134;28;21020;-57
2022/10/16 10:44:20;;;;;;;7.50;5.90;;;20.40;34.50;;;;;;5037247;28;20574;-57
2022/10/16 10:47:25;;;;;;;6.90;6.60;;;20.40;35.80;;;;;;5041159;28;20671;-57
2022/10/16 10:49:54;;;;;;;6.80;6.50;;;20.40;36.00;;;;;;5038069;28;20479;-57
2022/10/16 10:52:23;;;;;;;6.67;6.43;;;20.40;36.10;;;;;;5041076;28;20449;-57
2022/10/16 10:55:02;;;;;;;6.40;6.20;;;20.40;35.80;;;;;;5041216;28;21025;-57
2022/10/16 10:57:52;;;;;;;7.07;6.67;;;20.50;35.60;;;;;;5039886;28;20520;-55
2022/10/16 11:00:39;;;;;;;7.23;6.93;;;20.60;33.60;;;;;;5035400;28;21295;-56
2022/10/16 11:03:30;;;;;;;6.77;6.47;;;20.70;34.90;;;;;;5020553;28;20865;-56
2022/10/16 11:06:06;;;;;;;7.67;7.13;;;20.60;35.80;;;;;;5019080;28;20463;-56
2022/10/16 11:08:38;;;;;;;7.90;7.50;;;20.70;36.80;;;;;;5020131;28;20438;-56
2022/10/16 11:11:10;;;;;;;8.27;7.57;;;20.60;37.10;;;;;;5019845;28;20462;-56
2022/10/16 11:13:51;;;;;;;7.83;7.43;;;20.60;37.20;;;;;;5019309;28;20508;-56
2022/10/16 11:16:22;;;;;;;8.50;8.10;;;20.60;36.70;;;;;;5019411;28;20457;-57
2022/10/16 11:18:56;;;;;;;8.17;7.87;;;20.60;37.20;;;;;;5020143;28;21428;-56
2022/10/16 11:21:23;;;;;;;8.10;7.73;;;20.60;37.40;;;;;;5018572;28;20478;-57
2022/10/16 11:24:12;;;;;;;8.70;8.20;;;20.60;36.80;;;;;;5020018;28;20447;-56
2022/10/16 11:26:42;;;;;;;8.50;8.20;;;20.60;36.60;;;;;;5017361;28;20445;-57
2022/10/16 11:29:22;;;;;;;7.77;7.50;;;20.70;36.70;;;;;;5019696;28;20500;-57
2022/10/16 11:31:57;;;;;;;9.17;8.60;;;20.60;36.80;;;;;;5020343;28;20448;-57
2022/10/16 11:34:26;;;;;;;7.97;7.33;;;20.70;36.10;;;;;;5018033;28;20452;-57
2022/10/16 11:37:04;;;;;;;7.90;7.50;;;20.60;35.70;;;;;;5018893;28;20434;-57
2022/10/16 11:39:30;;;;;;;7.60;7.30;;;20.60;36.50;;;;;;5020307;28;20449;-57
2022/10/16 11:42:10;;;;;;;8.00;7.70;;;20.60;36.80;;;;;;5019147;28;20527;-57
2022/10/16 11:44:57;;;;;;;8.00;7.70;;;20.60;37.40;;;;;;5018342;28;20824;-57
2022/10/16 11:47:51;;;;;;;7.67;7.37;;;20.50;38.00;;;;;;5035490;28;20442;-57
2022/10/16 11:50:26;;;;;;;7.50;7.20;;;20.50;38.80;;;;;;5019467;28;20446;-57
2022/10/16 11:53:39;;;;;;;8.53;8.03;;;20.60;38.10;;;;;;5021839;28;20798;-56
2022/10/16 11:56:05;;;;;;;8.50;8.10;;;20.70;36.80;;;;;;5035279;28;20826;-56
2022/10/16 11:58:38;;;;;;;8.13;7.83;;;20.70;36.50;;;;;;5019873;28;20449;-57
2022/10/16 12:01:31;;;;;;;7.80;7.43;;;20.70;36.10;;;;;;5018870;28;20454;-53
2022/10/16 12:04:27;;;;;;;7.80;7.50;;;20.80;31.60;;;;;;5018781;28;20509;-57
2022/10/16 12:06:57;;;;;;;8.47;7.63;;;20.90;31.10;;;;;;5019816;28;20481;-56
2022/10/16 12:09:27;;;;;;;8.57;7.00;;;21.00;30.50;;;;;;5018128;28;20442;-56
2022/10/16 12:11:54;;;;;;;7.80;7.10;;;21.20;29.60;;;;;;5018549;28;20450;-56
2022/10/16 12:14:38;;;;;;;7.40;7.10;;;21.30;30.80;;;;;;5019720;28;20523;-54
2022/10/16 12:17:42;;;;;;;6.77;6.57;;;21.50;29.40;;;;;;5019826;28;20458;-56
2022/10/16 12:20:19;;;;;;;7.40;7.00;;;21.60;29.00;;;;;;5017930;28;20493;-56
2022/10/16 12:22:54;;;;;;;7.40;6.90;;;21.60;30.00;;;;;;5020143;28;20452;-57
2022/10/16 12:25:30;;;;;;;7.53;7.23;;;21.50;30.80;;;;;;5024169;28;20461;-55
2022/10/16 12:28:17;;;;;;;8.20;7.90;;;21.40;31.10;;;;;;5041455;28;20456;-55
2022/10/16 12:30:52;;;;;;;6.80;6.60;;;21.40;31.10;;;;;;5042668;28;20476;-56
2022/10/16 12:33:56;;;;;;;7.60;7.30;;;21.40;31.10;;;;;;5043032;28;20873;-56
2022/10/16 12:36:35;;;;;;;8.17;7.87;;;21.40;31.10;;;;;;4961741;28;20937;-56
2022/10/16 12:39:01;;;;;;;8.10;7.80;;;21.40;31.50;;;;;;5042525;28;20449;-56
2022/10/16 12:41:32;;;;;;;7.37;6.87;;;21.40;31.40;;;;;;5044363;28;20519;-56
2022/10/16 12:44:01;;;;;;;7.70;7.30;;;21.40;31.70;;;;;;5042525;28;20492;-56
2022/10/16 12:46:29;;;;;;;7.10;6.80;;;21.50;31.20;;;;;;5042799;28;20996;-56
2022/10/16 12:49:13;;;;;;;7.67;7.47;;;21.50;31.20;;;;;;5040656;28;20545;-56
2022/10/16 12:51:40;;;;;;;7.90;7.50;;;21.40;31.10;;;;;;5042985;28;20457;-56
2022/10/16 12:54:21;;;;;;;7.50;7.20;;;21.40;31.70;;;;;;5042656;28;20996;-55
2022/10/16 12:57:05;;;;;;;7.60;7.30;;;21.40;31.80;;;;;;5041833;28;20460;-56
2022/10/16 12:59:40;;;;;;;7.60;7.40;;;21.30;31.60;;;;;;5041343;28;20476;-56
2022/10/16 13:02:43;;;;;;;7.30;7.00;;;21.40;32.00;;;;;;5041892;28;20440;-57
2022/10/16 13:05:43;;;;;;;7.20;7.00;;;21.30;32.20;;;;;;5033015;28;20934;-56